sensor_id;sensor_type;location;lat;lon;timestamp;pressure;altitude;pressure_sealevel;temperature;humidity
75208;BME280;63795;55.684;37.864;2023-02-26T00:02:35;97592.19;;;0.81;85.90
75208;BME280;63795;55.684;37.864;2023-02-26T00:07:36;97585.41;;;0.82;86.08
75208;BME280;63795;55.684;37.864;2023-02-26T00:12:37;97567.88;;;0.75;86.12
75208;BME280;63795;55.684;37.864;2023-02-26T00:18:00;97558.34;;;0.76;86.45
75208;BME280;63795;55.684;37.864;2023-02-26T00:23:12;97545.59;;;0.71;86.40
75208;BME280;63795;55.684;37.864;2023-02-26T00:28:17;97536.03;;;0.65;86.97
75208;BME280;63795;55.684;37.864;2023-02-26T00:33:19;97512.50;;;0.66;86.98
75208;BME280;63795;55.684;37.864;2023-02-26T00:38:19;97516.91;;;0.67;86.72
75208;BME280;63795;55.684;37.864;2023-02-26T00:43:22;97498.59;;;0.59;86.78
75208;BME280;63795;55.684;37.864;2023-02-26T00:54:11;97448.44;;;0.49;87.00
75208;BME280;63795;55.684;37.864;2023-02-26T00:59:12;97444.06;;;0.41;87.47
75208;BME280;63795;55.684;37.864;2023-02-26T01:04:15;97433.72;;;0.38;87.71
75208;BME280;63795;55.684;37.864;2023-02-26T01:09:31;97442.06;;;0.34;87.83
75208;BME280;63795;55.684;37.864;2023-02-26T01:14:33;97450.81;;;0.33;87.63
75208;BME280;63795;55.684;37.864;2023-02-26T01:19:43;97443.66;;;0.28;87.83
75208;BME280;63795;55.684;37.864;2023-02-26T01:24:47;97431.31;;;0.22;87.91
75208;BME280;63795;55.684;37.864;2023-02-26T01:29:48;97423.38;;;0.17;88.09
75208;BME280;63795;55.684;37.864;2023-02-26T01:35:07;97421.38;;;0.14;88.42
75208;BME280;63795;55.684;37.864;2023-02-26T01:45:41;97402.31;;;0.06;88.64
75208;BME280;63795;55.684;37.864;2023-02-26T01:50:45;97396.72;;;0.06;88.72
75208;BME280;63795;55.684;37.864;2023-02-26T01:55:57;97388.00;;;0.00;88.92
75208;BME280;63795;55.684;37.864;2023-02-26T02:01:00;97366.47;;;0.00;88.83
75208;BME280;63795;55.684;37.864;2023-02-26T02:06:17;97372.47;;;-0.01;89.15
75208;BME280;63795;55.684;37.864;2023-02-26T02:11:19;97370.47;;;0.03;89.18
75208;BME280;63795;55.684;37.864;2023-02-26T02:27:19;97356.53;;;0.10;89.10
75208;BME280;63795;55.684;37.864;2023-02-26T02:32:30;97362.09;;;0.10;89.19
75208;BME280;63795;55.684;37.864;2023-02-26T02:38:18;97358.16;;;0.08;89.20
75208;BME280;63795;55.684;37.864;2023-02-26T02:43:21;97354.94;;;0.02;89.14
75208;BME280;63795;55.684;37.864;2023-02-26T02:48:31;97341.84;;;-0.01;89.26
75208;BME280;63795;55.684;37.864;2023-02-26T02:53:37;97328.31;;;-0.06;89.36
75208;BME280;63795;55.684;37.864;2023-02-26T02:58:47;97319.59;;;-0.08;89.58
75208;BME280;63795;55.684;37.864;2023-02-26T03:04:08;97324.34;;;-0.05;89.51
75208;BME280;63795;55.684;37.864;2023-02-26T03:09:10;97309.63;;;-0.02;89.67
75208;BME280;63795;55.684;37.864;2023-02-26T03:14:11;97318.34;;;-0.04;89.54
75208;BME280;63795;55.684;37.864;2023-02-26T03:19:31;97316.34;;;0.04;89.28
75208;BME280;63795;55.684;37.864;2023-02-26T03:24:34;97304.81;;;0.09;89.42
75208;BME280;63795;55.684;37.864;2023-02-26T03:35:14;97305.97;;;0.22;89.32
75208;BME280;63795;55.684;37.864;2023-02-26T03:40:25;97309.97;;;0.25;89.18
75208;BME280;63795;55.684;37.864;2023-02-26T03:45:30;97316.34;;;0.25;89.22
75208;BME280;63795;55.684;37.864;2023-02-26T03:50:36;97320.28;;;0.24;89.07
75208;BME280;63795;55.684;37.864;2023-02-26T03:56:03;97323.09;;;0.24;88.98
75208;BME280;63795;55.684;37.864;2023-02-26T04:01:07;97327.09;;;0.23;89.32
75208;BME280;63795;55.684;37.864;2023-02-26T04:06:10;97329.06;;;0.23;88.91
75208;BME280;63795;55.684;37.864;2023-02-26T04:11:14;97334.63;;;0.23;88.92
75208;BME280;63795;55.684;37.864;2023-02-26T04:16:19;97340.22;;;0.30;89.50
75208;BME280;63795;55.684;37.864;2023-02-26T04:21:21;97344.56;;;0.38;89.43
75208;BME280;63795;55.684;37.864;2023-02-26T04:26:21;97350.53;;;0.43;89.66
75208;BME280;63795;55.684;37.864;2023-02-26T04:31:22;97359.66;;;0.47;89.78
75208;BME280;63795;55.684;37.864;2023-02-26T04:36:22;97375.97;;;0.52;89.59
75208;BME280;63795;55.684;37.864;2023-02-26T04:41:23;97378.38;;;0.54;89.82
75208;BME280;63795;55.684;37.864;2023-02-26T04:46:23;97400.25;;;0.55;89.52
75208;BME280;63795;55.684;37.864;2023-02-26T04:51:24;97411.00;;;0.57;89.72
75208;BME280;63795;55.684;37.864;2023-02-26T04:56:25;97414.97;;;0.59;89.63
75208;BME280;63795;55.684;37.864;2023-02-26T05:01:25;97413.41;;;0.62;89.57
75208;BME280;63795;55.684;37.864;2023-02-26T05:06:26;97436.06;;;0.67;89.42
75208;BME280;63795;55.684;37.864;2023-02-26T05:11:26;97438.03;;;0.70;89.57
75208;BME280;63795;55.684;37.864;2023-02-26T05:16:27;97454.78;;;0.74;89.61
75208;BME280;63795;55.684;37.864;2023-02-26T05:21:27;97462.72;;;0.79;89.75
75208;BME280;63795;55.684;37.864;2023-02-26T05:26:28;97463.13;;;0.81;89.74
75208;BME280;63795;55.684;37.864;2023-02-26T05:31:28;97476.28;;;0.84;89.47
75208;BME280;63795;55.684;37.864;2023-02-26T05:36:29;97487.03;;;0.82;89.28
75208;BME280;63795;55.684;37.864;2023-02-26T05:41:29;97501.75;;;0.86;89.19
75208;BME280;63795;55.684;37.864;2023-02-26T05:46:30;97513.69;;;0.86;89.22
75208;BME280;63795;55.684;37.864;2023-02-26T05:51:30;97519.28;;;0.86;88.89
75208;BME280;63795;55.684;37.864;2023-02-26T05:56:31;97512.50;;;0.88;88.43
75208;BME280;63795;55.684;37.864;2023-02-26T06:01:31;97525.63;;;1.12;88.10
75208;BME280;63795;55.684;37.864;2023-02-26T06:06:32;97531.06;;;1.50;87.48
75208;BME280;63795;55.684;37.864;2023-02-26T06:11:32;97531.06;;;1.50;85.47
75208;BME280;63795;55.684;37.864;2023-02-26T06:16:33;97529.16;;;1.30;84.73
75208;BME280;63795;55.684;37.864;2023-02-26T06:21:35;97535.94;;;1.29;85.04
75208;BME280;63795;55.684;37.864;2023-02-26T06:26:35;97543.13;;;1.30;84.99
75208;BME280;63795;55.684;37.864;2023-02-26T06:31:35;97554.28;;;1.30;83.73
75208;BME280;63795;55.684;37.864;2023-02-26T06:36:36;97560.25;;;1.32;84.24
75208;BME280;63795;55.684;37.864;2023-02-26T06:41:37;97567.03;;;1.38;83.93
75208;BME280;63795;55.684;37.864;2023-02-26T06:46:37;97578.19;;;1.38;82.76
75208;BME280;63795;55.684;37.864;2023-02-26T06:51:37;97589.34;;;1.38;83.06
75208;BME280;63795;55.684;37.864;2023-02-26T06:56:38;97593.31;;;1.40;83.28
75208;BME280;63795;55.684;37.864;2023-02-26T07:01:38;97612.47;;;1.42;82.81
75208;BME280;63795;55.684;37.864;2023-02-26T07:06:39;97614.84;;;1.40;82.56
75208;BME280;63795;55.684;37.864;2023-02-26T07:11:39;97623.63;;;1.42;82.39
75208;BME280;63795;55.684;37.864;2023-02-26T07:16:40;97615.25;;;1.35;81.83
75208;BME280;63795;55.684;37.864;2023-02-26T07:21:40;97632.78;;;1.42;81.60
75208;BME280;63795;55.684;37.864;2023-02-26T07:26:41;97644.34;;;1.41;81.30
75208;BME280;63795;55.684;37.864;2023-02-26T07:31:42;97638.75;;;1.44;81.90
75208;BME280;63795;55.684;37.864;2023-02-26T07:36:45;97651.13;;;1.43;81.21
75208;BME280;63795;55.684;37.864;2023-02-26T07:41:46;97649.53;;;1.42;80.79
75208;BME280;63795;55.684;37.864;2023-02-26T07:46:46;97648.75;;;1.42;81.28
75208;BME280;63795;55.684;37.864;2023-02-26T07:51:47;97665.88;;;1.44;80.68
75208;BME280;63795;55.684;37.864;2023-02-26T07:56:47;97668.28;;;1.45;80.16
75208;BME280;63795;55.684;37.864;2023-02-26T08:01:48;97666.66;;;1.51;79.57
75208;BME280;63795;55.684;37.864;2023-02-26T08:06:49;97677.84;;;1.62;80.35
75208;BME280;63795;55.684;37.864;2023-02-26T08:11:49;97678.63;;;1.66;79.47
75208;BME280;63795;55.684;37.864;2023-02-26T08:16:50;97686.59;;;1.64;79.62
75208;BME280;63795;55.684;37.864;2023-02-26T08:21:52;97697.75;;;1.71;79.42
75208;BME280;63795;55.684;37.864;2023-02-26T08:26:54;97698.53;;;1.75;79.11
75208;BME280;63795;55.684;37.864;2023-02-26T08:31:55;97713.28;;;1.79;78.63
75208;BME280;63795;55.684;37.864;2023-02-26T08:36:56;97724.47;;;1.79;78.68
75208;BME280;63795;55.684;37.864;2023-02-26T08:41:56;97727.28;;;1.65;79.87
75208;BME280;63795;55.684;37.864;2023-02-26T08:46:57;97743.25;;;1.57;80.25
75208;BME280;63795;55.684;37.864;2023-02-26T08:51:57;97762.38;;;1.52;80.96
75208;BME280;63795;55.684;37.864;2023-02-26T08:56:58;97762.38;;;1.41;80.80
75208;BME280;63795;55.684;37.864;2023-02-26T09:01:59;97762.38;;;1.45;81.08
75208;BME280;63795;55.684;37.864;2023-02-26T09:06:59;97779.50;;;1.47;80.53
75208;BME280;63795;55.684;37.864;2023-02-26T09:12:00;97789.88;;;1.43;79.67
75208;BME280;63795;55.684;37.864;2023-02-26T09:17:00;97787.88;;;1.47;77.58
75208;BME280;63795;55.684;37.864;2023-02-26T09:22:01;97802.28;;;1.56;76.96
75208;BME280;63795;55.684;37.864;2023-02-26T09:27:01;97815.41;;;1.62;75.44
75208;BME280;63795;55.684;37.864;2023-02-26T09:32:03;97811.06;;;1.72;76.60
75208;BME280;63795;55.684;37.864;2023-02-26T09:37:08;97791.91;;;1.67;75.18
75208;BME280;63795;55.684;37.864;2023-02-26T09:42:43;97805.88;;;1.78;74.64
75208;BME280;63795;55.684;37.864;2023-02-26T09:47:51;97807.84;;;1.88;75.11
75208;BME280;63795;55.684;37.864;2023-02-26T10:05:39;97852.97;;;1.86;74.21
75208;BME280;63795;55.684;37.864;2023-02-26T10:11:02;97858.13;;;1.88;73.45
75208;BME280;63795;55.684;37.864;2023-02-26T10:16:12;97872.50;;;1.93;71.97
75208;BME280;63795;55.684;37.864;2023-02-26T10:32:05;97880.47;;;2.09;71.15
75208;BME280;63795;55.684;37.864;2023-02-26T10:37:18;97889.28;;;2.14;70.24
75208;BME280;63795;55.684;37.864;2023-02-26T10:42:32;97883.69;;;2.18;68.45
75208;BME280;63795;55.684;37.864;2023-02-26T10:52:48;97902.84;;;2.40;69.06
75208;BME280;63795;55.684;37.864;2023-02-26T10:58:03;97900.44;;;2.49;68.41
75208;BME280;63795;55.684;37.864;2023-02-26T11:03:05;97902.81;;;2.47;68.08
75208;BME280;63795;55.684;37.864;2023-02-26T11:08:29;97907.22;;;2.52;67.11
75208;BME280;63795;55.684;37.864;2023-02-26T11:13:33;97900.03;;;2.47;66.33
75208;BME280;63795;55.684;37.864;2023-02-26T11:18:44;97906.81;;;2.50;65.82
75208;BME280;63795;55.684;37.864;2023-02-26T11:23:48;97915.63;;;2.48;64.54
75208;BME280;63795;55.684;37.864;2023-02-26T11:28:53;97914.41;;;2.49;65.82
75208;BME280;63795;55.684;37.864;2023-02-26T11:34:07;97922.78;;;2.49;65.43
75208;BME280;63795;55.684;37.864;2023-02-26T11:39:32;97922.78;;;2.49;66.46
75208;BME280;63795;55.684;37.864;2023-02-26T11:44:34;97926.00;;;2.48;66.16
75208;BME280;63795;55.684;37.864;2023-02-26T11:49:41;97923.19;;;2.51;66.70
75208;BME280;63795;55.684;37.864;2023-02-26T11:54:44;97926.78;;;2.59;66.94
75208;BME280;63795;55.684;37.864;2023-02-26T11:59:52;97932.78;;;2.57;66.36
75208;BME280;63795;55.684;37.864;2023-02-26T12:04:56;97933.19;;;2.49;66.00
75208;BME280;63795;55.684;37.864;2023-02-26T12:10:00;97951.56;;;2.46;65.70
75208;BME280;63795;55.684;37.864;2023-02-26T12:25:44;97939.59;;;2.46;66.44
75208;BME280;63795;55.684;37.864;2023-02-26T12:36:24;97934.00;;;2.42;65.63
75208;BME280;63795;55.684;37.864;2023-02-26T12:41:41;97935.59;;;2.43;65.76
75208;BME280;63795;55.684;37.864;2023-02-26T12:58:01;97994.97;;;1.77;70.06
75208;BME280;63795;55.684;37.864;2023-02-26T13:30:20;98041.13;;;0.85;73.77
75208;BME280;63795;55.684;37.864;2023-02-26T13:35:48;98049.53;;;0.88;73.63
75208;BME280;63795;55.684;37.864;2023-02-26T13:47:06;98055.09;;;0.88;74.01
75208;BME280;63795;55.684;37.864;2023-02-26T13:51:47;98072.97;;;0.80;74.84
75208;BME280;63795;55.684;37.864;2023-02-26T13:57:10;98071.78;;;0.78;75.62
75208;BME280;63795;55.684;37.864;2023-02-26T14:07:44;98093.69;;;0.79;74.59
75208;BME280;63795;55.684;37.864;2023-02-26T14:12:41;98101.22;;;0.75;73.79
75208;BME280;63795;55.684;37.864;2023-02-26T14:17:50;98107.97;;;0.74;74.11
75208;BME280;63795;55.684;37.864;2023-02-26T14:23:10;98114.34;;;0.71;74.36
75208;BME280;63795;55.684;37.864;2023-02-26T14:33:29;98148.75;;;0.49;74.59
75208;BME280;63795;55.684;37.864;2023-02-26T14:38:34;98154.94;;;0.32;74.47
75208;BME280;63795;55.684;37.864;2023-02-26T14:43:42;98154.69;;;0.11;72.66
75208;BME280;63795;55.684;37.864;2023-02-26T14:48:45;98160.94;;;0.01;71.46
75208;BME280;63795;55.684;37.864;2023-02-26T15:20:24;98223.78;;;0.02;67.72
75208;BME280;63795;55.684;37.864;2023-02-26T15:25:35;98235.13;;;-0.14;65.90
75208;BME280;63795;55.684;37.864;2023-02-26T15:30:38;98235.28;;;-0.29;66.09
75208;BME280;63795;55.684;37.864;2023-02-26T15:35:42;98257.47;;;-0.36;65.94
75208;BME280;63795;55.684;37.864;2023-02-26T15:40:43;98255.38;;;-0.43;65.94
75208;BME280;63795;55.684;37.864;2023-02-26T15:45:46;98278.88;;;-0.40;66.51
75208;BME280;63795;55.684;37.864;2023-02-26T15:50:52;98286.41;;;-0.41;66.58
75208;BME280;63795;55.684;37.864;2023-02-26T15:55:55;98310.97;;;-0.46;66.46
75208;BME280;63795;55.684;37.864;2023-02-26T16:00:59;98306.34;;;-0.61;66.67
75208;BME280;63795;55.684;37.864;2023-02-26T16:06:01;98302.25;;;-0.67;67.34
75208;BME280;63795;55.684;37.864;2023-02-26T16:11:02;98314.88;;;-0.73;67.18
75208;BME280;63795;55.684;37.864;2023-02-26T16:16:12;98318.41;;;-0.76;67.00
75208;BME280;63795;55.684;37.864;2023-02-26T16:21:35;98325.56;;;-0.75;67.21
75208;BME280;63795;55.684;37.864;2023-02-26T16:26:44;98321.91;;;-0.79;66.99
75208;BME280;63795;55.684;37.864;2023-02-26T16:31:53;98345.53;;;-0.70;67.23
75208;BME280;63795;55.684;37.864;2023-02-26T16:36:54;98343.72;;;-0.81;68.33
75208;BME280;63795;55.684;37.864;2023-02-26T16:42:11;98360.28;;;-0.89;68.56
75208;BME280;63795;55.684;37.864;2023-02-26T16:47:14;98355.66;;;-1.00;69.17
75208;BME280;63795;55.684;37.864;2023-02-26T16:52:23;98364.81;;;-1.00;69.31
75208;BME280;63795;55.684;37.864;2023-02-26T16:57:37;98376.59;;;-1.06;68.92
75208;BME280;63795;55.684;37.864;2023-02-26T17:02:40;98377.34;;;-1.09;68.09
75208;BME280;63795;55.684;37.864;2023-02-26T17:07:48;98383.34;;;-1.07;67.49
75208;BME280;63795;55.684;37.864;2023-02-26T17:13:03;98388.41;;;-1.13;66.81
75208;BME280;63795;55.684;37.864;2023-02-26T17:18:05;98395.94;;;-1.13;66.74
75208;BME280;63795;55.684;37.864;2023-02-26T17:23:07;98427.03;;;-1.08;66.89
75208;BME280;63795;55.684;37.864;2023-02-26T17:28:20;98419.00;;;-1.13;66.43
75208;BME280;63795;55.684;37.864;2023-02-26T17:33:21;98418.88;;;-1.16;66.74
75208;BME280;63795;55.684;37.864;2023-02-26T17:38:21;98452.47;;;-1.25;66.82
75208;BME280;63795;55.684;37.864;2023-02-26T17:43:22;98441.03;;;-1.39;66.73
75208;BME280;63795;55.684;37.864;2023-02-26T17:48:23;98463.84;;;-1.49;66.08
75208;BME280;63795;55.684;37.864;2023-02-26T17:53:26;98466.88;;;-1.54;65.33
75208;BME280;63795;55.684;37.864;2023-02-26T17:58:32;98487.50;;;-1.55;65.23
75208;BME280;63795;55.684;37.864;2023-02-26T18:03:33;98491.44;;;-1.56;65.76
75208;BME280;63795;55.684;37.864;2023-02-26T18:08:33;98487.44;;;-1.58;66.05
75208;BME280;63795;55.684;37.864;2023-02-26T18:13:34;98485.00;;;-1.76;65.44
75208;BME280;63795;55.684;37.864;2023-02-26T18:18:34;98502.19;;;-1.70;65.94
75208;BME280;63795;55.684;37.864;2023-02-26T18:23:35;98510.53;;;-1.70;65.90
75208;BME280;63795;55.684;37.864;2023-02-26T18:28:36;98531.06;;;-1.75;65.78
75208;BME280;63795;55.684;37.864;2023-02-26T18:33:36;98537.78;;;-1.76;66.54
75208;BME280;63795;55.684;37.864;2023-02-26T18:38:37;98518.34;;;-1.76;65.80
75208;BME280;63795;55.684;37.864;2023-02-26T18:43:38;98529.63;;;-1.84;66.30
75208;BME280;63795;55.684;37.864;2023-02-26T18:48:39;98543.69;;;-1.77;66.02
75208;BME280;63795;55.684;37.864;2023-02-26T18:53:39;98560.59;;;-1.82;65.98
75208;BME280;63795;55.684;37.864;2023-02-26T18:58:39;98556.47;;;-1.88;65.92
75208;BME280;63795;55.684;37.864;2023-02-26T19:03:40;98553.78;;;-2.00;66.01
75208;BME280;63795;55.684;37.864;2023-02-26T19:08:40;98570.38;;;-1.88;65.71
75208;BME280;63795;55.684;37.864;2023-02-26T19:13:42;98585.44;;;-1.89;65.07
75208;BME280;63795;55.684;37.864;2023-02-26T19:18:43;98579.22;;;-1.98;65.30
75208;BME280;63795;55.684;37.864;2023-02-26T19:23:43;98584.78;;;-1.98;65.51
75208;BME280;63795;55.684;37.864;2023-02-26T19:28:44;98613.94;;;-2.04;65.07
75208;BME280;63795;55.684;37.864;2023-02-26T19:33:45;98640.13;;;-2.05;65.06
75208;BME280;63795;55.684;37.864;2023-02-26T19:38:45;98633.66;;;-2.09;64.97
75208;BME280;63795;55.684;37.864;2023-02-26T19:43:46;98641.31;;;-2.18;64.76
75208;BME280;63795;55.684;37.864;2023-02-26T19:48:47;98652.22;;;-2.25;64.86
75208;BME280;63795;55.684;37.864;2023-02-26T19:53:47;98645.03;;;-2.26;64.34
75208;BME280;63795;55.684;37.864;2023-02-26T19:58:48;98670.47;;;-2.24;64.98
75208;BME280;63795;55.684;37.864;2023-02-26T20:03:49;98676.84;;;-2.24;64.71
75208;BME280;63795;55.684;37.864;2023-02-26T20:08:50;98677.66;;;-2.23;65.03
75208;BME280;63795;55.684;37.864;2023-02-26T20:13:51;98688.38;;;-2.22;65.10
75208;BME280;63795;55.684;37.864;2023-02-26T20:18:52;98691.16;;;-2.22;65.23
75208;BME280;63795;55.684;37.864;2023-02-26T20:23:52;98702.38;;;-2.18;65.38
75208;BME280;63795;55.684;37.864;2023-02-26T20:28:53;98704.00;;;-2.17;65.42
75208;BME280;63795;55.684;37.864;2023-02-26T20:33:54;98713.63;;;-2.27;65.14
75208;BME280;63795;55.684;37.864;2023-02-26T20:38:54;98721.38;;;-2.32;65.40
75208;BME280;63795;55.684;37.864;2023-02-26T20:43:55;98713.97;;;-2.28;65.28
75208;BME280;63795;55.684;37.864;2023-02-26T20:48:55;98725.41;;;-2.30;64.99
75208;BME280;63795;55.684;37.864;2023-02-26T20:53:56;98737.22;;;-2.33;64.81
75208;BME280;63795;55.684;37.864;2023-02-26T20:58:56;98749.56;;;-2.30;65.31
75208;BME280;63795;55.684;37.864;2023-02-26T21:03:57;98760.00;;;-2.27;65.47
75208;BME280;63795;55.684;37.864;2023-02-26T21:08:58;98765.91;;;-2.29;65.78
75208;BME280;63795;55.684;37.864;2023-02-26T21:14:01;98776.75;;;-2.36;65.45
75208;BME280;63795;55.684;37.864;2023-02-26T21:19:02;98786.34;;;-2.33;65.26
75208;BME280;63795;55.684;37.864;2023-02-26T21:24:03;98787.50;;;-2.34;65.04
75208;BME280;63795;55.684;37.864;2023-02-26T21:29:04;98811.22;;;-2.37;65.38
75208;BME280;63795;55.684;37.864;2023-02-26T21:34:05;98817.81;;;-2.41;65.79
75208;BME280;63795;55.684;37.864;2023-02-26T21:39:05;98821.41;;;-2.41;66.04
75208;BME280;63795;55.684;37.864;2023-02-26T21:44:06;98835.38;;;-2.37;66.44
75208;BME280;63795;55.684;37.864;2023-02-26T21:49:06;98849.47;;;-2.30;66.44
75208;BME280;63795;55.684;37.864;2023-02-26T21:54:07;98854.81;;;-2.37;66.82
75208;BME280;63795;55.684;37.864;2023-02-26T21:59:07;98861.16;;;-2.37;66.68
75208;BME280;63795;55.684;37.864;2023-02-26T22:04:08;98866.34;;;-2.47;67.10
75208;BME280;63795;55.684;37.864;2023-02-26T22:09:09;98889.00;;;-2.45;67.03
75208;BME280;63795;55.684;37.864;2023-02-26T22:14:09;98892.59;;;-2.45;66.83
75208;BME280;63795;55.684;37.864;2023-02-26T22:19:10;98904.59;;;-2.53;66.99
75208;BME280;63795;55.684;37.864;2023-02-26T22:24:10;98909.00;;;-2.52;67.12
75208;BME280;63795;55.684;37.864;2023-02-26T22:29:14;98918.59;;;-2.49;66.85
75208;BME280;63795;55.684;37.864;2023-02-26T22:34:14;98919.25;;;-2.52;66.69
75208;BME280;63795;55.684;37.864;2023-02-26T22:39:15;98928.75;;;-2.53;66.74
75208;BME280;63795;55.684;37.864;2023-02-26T22:44:15;98936.63;;;-2.55;66.85
75208;BME280;63795;55.684;37.864;2023-02-26T22:49:16;98961.56;;;-2.55;67.20
75208;BME280;63795;55.684;37.864;2023-02-26T22:54:16;98976.38;;;-2.51;66.88
75208;BME280;63795;55.684;37.864;2023-02-26T22:59:17;98981.81;;;-2.55;67.16
75208;BME280;63795;55.684;37.864;2023-02-26T23:04:17;98991.38;;;-2.65;67.47
75208;BME280;63795;55.684;37.864;2023-02-26T23:09:18;98993.22;;;-2.69;67.72
75208;BME280;63795;55.684;37.864;2023-02-26T23:14:18;98991.81;;;-2.75;67.91
75208;BME280;63795;55.684;37.864;2023-02-26T23:19:19;99014.31;;;-2.76;68.33
75208;BME280;63795;55.684;37.864;2023-02-26T23:24:19;99029.22;;;-2.81;68.37
75208;BME280;63795;55.684;37.864;2023-02-26T23:29:19;99026.56;;;-2.77;68.42
75208;BME280;63795;55.684;37.864;2023-02-26T23:34:20;99048.00;;;-2.86;69.06
75208;BME280;63795;55.684;37.864;2023-02-26T23:39:21;99041.91;;;-2.80;68.23
75208;BME280;63795;55.684;37.864;2023-02-26T23:44:22;99056.78;;;-2.84;68.61
75208;BME280;63795;55.684;37.864;2023-02-26T23:49:22;99055.72;;;-2.92;68.82
75208;BME280;63795;55.684;37.864;2023-02-26T23:54:23;99079.19;;;-2.89;69.12
75208;BME280;63795;55.684;37.864;2023-02-26T23:59:23;99082.69;;;-2.80;69.21
